aviador You're here:

OIZH Decoded Metar

ZAHEDAN in IRAN
Report Time2018-07-20 06:00:00
UTC Time2018-07-20 06:16:32
Flight Rules vfr VFR
Wind120° at 04 kt
W.Decomp.*RWY 17: 2.5 kt HW 3.1 kt LCW
W.Rank120° ranks 19
Current wind is below 120° avg. (7.3)
Visibility8000 m
Phenomena:N/A
Clouds:N/A
Expected CloudBase > 13,600 ft AGL from Temp-Dew spread
CeilingNone
Temp35°C (ISA +29)
Dew Point01°C (11% RH)
Heat Index32.4°C
AAT31.6°C
QNH1007 hPa
Density Alt8,022 ft
Elevation4,495 ft
Report Wrong Elevation
Raw Report
OIZH 200600Z 12004KT 8000 NSC 35/01 Q1007 A2975 NOSIG=

Extra information for OIZH:More info

Metar Taf Metar & Taf Last 4 Metars F.Rules Stats Wind Profile Meteogram Temp Stats Airport Information Weather charts Add Link Nearby VenuesMetar ALERT Operation Metar Decoded Social comments